sensor_id;sensor_type;location;lat;lon;timestamp;P1;durP1;ratioP1;P2;durP2;ratioP2
55776;SDS011;54079;44.540;18.784;2023-03-01T00:02:07;15.35;;;9.18;;
55776;SDS011;54079;44.540;18.784;2023-03-01T00:04:33;11.45;;;8.10;;
55776;SDS011;54079;44.540;18.784;2023-03-01T00:07:00;16.25;;;10.38;;
55776;SDS011;54079;44.540;18.784;2023-03-01T00:09:26;15.88;;;10.25;;
55776;SDS011;54079;44.540;18.784;2023-03-01T00:11:52;12.02;;;8.40;;
55776;SDS011;54079;44.540;18.784;2023-03-01T00:14:18;14.40;;;10.02;;
55776;SDS011;54079;44.540;18.784;2023-03-01T00:16:45;12.95;;;9.23;;
55776;SDS011;54079;44.540;18.784;2023-03-01T00:19:16;13.55;;;8.90;;
55776;SDS011;54079;44.540;18.784;2023-03-01T00:24:09;12.82;;;8.50;;
55776;SDS011;54079;44.540;18.784;2023-03-01T00:26:37;15.82;;;9.95;;
55776;SDS011;54079;44.540;18.784;2023-03-01T00:29:03;13.48;;;8.82;;
55776;SDS011;54079;44.540;18.784;2023-03-01T00:31:30;16.65;;;9.80;;
55776;SDS011;54079;44.540;18.784;2023-03-01T00:33:58;16.85;;;11.00;;
55776;SDS011;54079;44.540;18.784;2023-03-01T00:36:27;13.85;;;10.32;;
55776;SDS011;54079;44.540;18.784;2023-03-01T00:38:55;14.50;;;10.05;;
55776;SDS011;54079;44.540;18.784;2023-03-01T00:41:21;18.92;;;11.30;;
55776;SDS011;54079;44.540;18.784;2023-03-01T00:43:48;13.85;;;9.70;;
55776;SDS011;54079;44.540;18.784;2023-03-01T00:46:16;16.08;;;10.77;;
55776;SDS011;54079;44.540;18.784;2023-03-01T00:48:43;13.43;;;9.65;;
55776;SDS011;54079;44.540;18.784;2023-03-01T00:51:10;17.35;;;10.57;;
55776;SDS011;54079;44.540;18.784;2023-03-01T00:53:39;13.88;;;9.45;;
55776;SDS011;54079;44.540;18.784;2023-03-01T00:56:06;12.32;;;8.35;;
55776;SDS011;54079;44.540;18.784;2023-03-01T00:58:34;12.02;;;8.10;;
55776;SDS011;54079;44.540;18.784;2023-03-01T01:01:06;13.02;;;8.80;;
55776;SDS011;54079;44.540;18.784;2023-03-01T01:03:42;12.60;;;8.13;;
55776;SDS011;54079;44.540;18.784;2023-03-01T01:06:13;12.02;;;8.10;;
55776;SDS011;54079;44.540;18.784;2023-03-01T01:08:59;12.77;;;8.25;;
55776;SDS011;54079;44.540;18.784;2023-03-01T01:11:26;12.80;;;8.98;;
55776;SDS011;54079;44.540;18.784;2023-03-01T01:13:53;13.32;;;8.63;;
55776;SDS011;54079;44.540;18.784;2023-03-01T01:16:20;13.15;;;8.48;;
55776;SDS011;54079;44.540;18.784;2023-03-01T01:18:47;12.40;;;8.82;;
55776;SDS011;54079;44.540;18.784;2023-03-01T01:21:15;10.57;;;8.25;;
55776;SDS011;54079;44.540;18.784;2023-03-01T01:23:44;8.55;;;6.75;;
55776;SDS011;54079;44.540;18.784;2023-03-01T01:26:15;13.38;;;9.63;;
55776;SDS011;54079;44.540;18.784;2023-03-01T01:28:43;11.52;;;7.97;;
55776;SDS011;54079;44.540;18.784;2023-03-01T01:31:10;10.82;;;7.90;;
55776;SDS011;54079;44.540;18.784;2023-03-01T01:33:36;15.75;;;7.40;;
55776;SDS011;54079;44.540;18.784;2023-03-01T01:36:02;10.73;;;7.88;;
55776;SDS011;54079;44.540;18.784;2023-03-01T01:38:29;11.15;;;7.90;;
55776;SDS011;54079;44.540;18.784;2023-03-01T01:40:55;10.40;;;7.63;;
55776;SDS011;54079;44.540;18.784;2023-03-01T01:43:40;9.10;;;7.30;;
55776;SDS011;54079;44.540;18.784;2023-03-01T01:46:25;10.23;;;7.30;;
55776;SDS011;54079;44.540;18.784;2023-03-01T01:52:15;10.07;;;7.07;;
55776;SDS011;54079;44.540;18.784;2023-03-01T01:54:54;10.85;;;7.68;;
55776;SDS011;54079;44.540;18.784;2023-03-01T01:57:36;9.85;;;7.35;;
55776;SDS011;54079;44.540;18.784;2023-03-01T02:00:08;10.52;;;7.28;;
55776;SDS011;54079;44.540;18.784;2023-03-01T02:02:37;8.60;;;7.05;;
55776;SDS011;54079;44.540;18.784;2023-03-01T02:05:21;8.57;;;6.47;;
55776;SDS011;54079;44.540;18.784;2023-03-01T02:08:02;10.38;;;7.47;;
55776;SDS011;54079;44.540;18.784;2023-03-01T02:10:28;7.50;;;5.70;;
55776;SDS011;54079;44.540;18.784;2023-03-01T02:12:58;10.52;;;6.97;;
55776;SDS011;54079;44.540;18.784;2023-03-01T02:15:25;8.82;;;6.15;;
55776;SDS011;54079;44.540;18.784;2023-03-01T02:17:52;9.23;;;6.40;;
55776;SDS011;54079;44.540;18.784;2023-03-01T02:20:25;9.93;;;6.38;;
55776;SDS011;54079;44.540;18.784;2023-03-01T02:22:52;10.63;;;7.03;;
55776;SDS011;54079;44.540;18.784;2023-03-01T02:27:57;7.95;;;6.47;;
55776;SDS011;54079;44.540;18.784;2023-03-01T02:30:36;9.75;;;6.95;;
55776;SDS011;54079;44.540;18.784;2023-03-01T02:33:22;7.97;;;6.60;;
55776;SDS011;54079;44.540;18.784;2023-03-01T02:35:49;8.18;;;5.95;;
55776;SDS011;54079;44.540;18.784;2023-03-01T02:38:15;9.23;;;7.22;;
55776;SDS011;54079;44.540;18.784;2023-03-01T02:40:42;8.10;;;5.95;;
55776;SDS011;54079;44.540;18.784;2023-03-01T02:43:10;8.30;;;6.53;;
55776;SDS011;54079;44.540;18.784;2023-03-01T02:45:37;8.63;;;6.25;;
55776;SDS011;54079;44.540;18.784;2023-03-01T02:48:08;8.82;;;5.93;;
55776;SDS011;54079;44.540;18.784;2023-03-01T02:53:30;7.00;;;5.55;;
55776;SDS011;54079;44.540;18.784;2023-03-01T02:56:14;8.13;;;5.78;;
55776;SDS011;54079;44.540;18.784;2023-03-01T02:58:41;8.85;;;6.05;;
55776;SDS011;54079;44.540;18.784;2023-03-01T03:01:10;7.70;;;5.45;;
55776;SDS011;54079;44.540;18.784;2023-03-01T03:03:38;10.02;;;6.70;;
55776;SDS011;54079;44.540;18.784;2023-03-01T03:06:04;7.97;;;5.85;;
55776;SDS011;54079;44.540;18.784;2023-03-01T03:08:30;8.50;;;5.68;;
55776;SDS011;54079;44.540;18.784;2023-03-01T03:10:56;9.00;;;6.43;;
55776;SDS011;54079;44.540;18.784;2023-03-01T03:13:22;9.07;;;6.70;;
55776;SDS011;54079;44.540;18.784;2023-03-01T03:15:53;7.43;;;5.80;;
55776;SDS011;54079;44.540;18.784;2023-03-01T03:18:21;7.88;;;5.85;;
55776;SDS011;54079;44.540;18.784;2023-03-01T03:20:48;9.40;;;5.97;;
55776;SDS011;54079;44.540;18.784;2023-03-01T03:23:18;8.27;;;6.05;;
55776;SDS011;54079;44.540;18.784;2023-03-01T03:25:47;12.70;;;8.98;;
55776;SDS011;54079;44.540;18.784;2023-03-01T03:28:14;11.73;;;7.60;;
55776;SDS011;54079;44.540;18.784;2023-03-01T03:30:41;9.07;;;5.95;;
55776;SDS011;54079;44.540;18.784;2023-03-01T03:33:08;10.02;;;6.18;;
55776;SDS011;54079;44.540;18.784;2023-03-01T03:35:39;8.95;;;7.05;;
55776;SDS011;54079;44.540;18.784;2023-03-01T03:38:08;9.50;;;6.60;;
55776;SDS011;54079;44.540;18.784;2023-03-01T03:40:41;6.90;;;4.95;;
55776;SDS011;54079;44.540;18.784;2023-03-01T03:43:13;6.28;;;4.78;;
55776;SDS011;54079;44.540;18.784;2023-03-01T03:45:45;7.82;;;5.32;;
55776;SDS011;54079;44.540;18.784;2023-03-01T03:48:12;6.82;;;4.93;;
55776;SDS011;54079;44.540;18.784;2023-03-01T03:50:39;7.50;;;6.13;;
55776;SDS011;54079;44.540;18.784;2023-03-01T03:53:11;7.85;;;5.38;;
55776;SDS011;54079;44.540;18.784;2023-03-01T03:55:37;6.80;;;4.50;;
55776;SDS011;54079;44.540;18.784;2023-03-01T03:58:05;5.03;;;3.85;;
55776;SDS011;54079;44.540;18.784;2023-03-01T04:00:35;4.97;;;4.07;;
55776;SDS011;54079;44.540;18.784;2023-03-01T04:03:06;4.70;;;3.97;;
55776;SDS011;54079;44.540;18.784;2023-03-01T04:05:33;5.55;;;3.92;;
55776;SDS011;54079;44.540;18.784;2023-03-01T04:07:59;4.50;;;4.07;;
55776;SDS011;54079;44.540;18.784;2023-03-01T04:10:29;4.38;;;3.30;;
55776;SDS011;54079;44.540;18.784;2023-03-01T04:12:56;4.28;;;3.83;;
55776;SDS011;54079;44.540;18.784;2023-03-01T04:15:23;5.13;;;3.65;;
55776;SDS011;54079;44.540;18.784;2023-03-01T04:17:50;5.50;;;3.90;;
55776;SDS011;54079;44.540;18.784;2023-03-01T04:20:18;4.47;;;3.40;;
55776;SDS011;54079;44.540;18.784;2023-03-01T04:22:56;3.80;;;3.40;;
55776;SDS011;54079;44.540;18.784;2023-03-01T04:25:38;3.63;;;3.10;;
55776;SDS011;54079;44.540;18.784;2023-03-01T04:28:06;4.15;;;3.28;;
55776;SDS011;54079;44.540;18.784;2023-03-01T04:30:32;3.83;;;3.05;;
55776;SDS011;54079;44.540;18.784;2023-03-01T04:33:01;3.30;;;2.92;;
55776;SDS011;54079;44.540;18.784;2023-03-01T04:35:29;3.10;;;2.67;;
55776;SDS011;54079;44.540;18.784;2023-03-01T04:37:55;2.88;;;2.47;;
55776;SDS011;54079;44.540;18.784;2023-03-01T04:40:21;7.40;;;2.88;;
55776;SDS011;54079;44.540;18.784;2023-03-01T04:42:47;2.83;;;2.28;;
55776;SDS011;54079;44.540;18.784;2023-03-01T04:45:13;3.00;;;2.60;;
55776;SDS011;54079;44.540;18.784;2023-03-01T04:47:40;2.53;;;2.25;;
55776;SDS011;54079;44.540;18.784;2023-03-01T04:50:08;2.65;;;2.45;;
55776;SDS011;54079;44.540;18.784;2023-03-01T04:52:35;2.95;;;2.35;;
55776;SDS011;54079;44.540;18.784;2023-03-01T04:55:01;3.03;;;2.47;;
55776;SDS011;54079;44.540;18.784;2023-03-01T04:57:28;3.15;;;2.85;;
55776;SDS011;54079;44.540;18.784;2023-03-01T04:59:55;3.05;;;2.70;;
55776;SDS011;54079;44.540;18.784;2023-03-01T05:02:21;3.05;;;2.33;;
55776;SDS011;54079;44.540;18.784;2023-03-01T05:04:47;3.92;;;2.60;;
55776;SDS011;54079;44.540;18.784;2023-03-01T05:07:13;3.35;;;2.88;;
55776;SDS011;54079;44.540;18.784;2023-03-01T05:09:45;3.55;;;2.70;;
55776;SDS011;54079;44.540;18.784;2023-03-01T05:12:12;3.00;;;2.70;;
55776;SDS011;54079;44.540;18.784;2023-03-01T05:14:38;3.10;;;2.55;;
55776;SDS011;54079;44.540;18.784;2023-03-01T05:17:05;2.83;;;2.45;;
55776;SDS011;54079;44.540;18.784;2023-03-01T05:19:31;2.70;;;2.42;;
55776;SDS011;54079;44.540;18.784;2023-03-01T05:21:58;3.15;;;2.35;;
55776;SDS011;54079;44.540;18.784;2023-03-01T05:24:27;2.85;;;2.28;;
55776;SDS011;54079;44.540;18.784;2023-03-01T05:26:54;2.47;;;2.28;;
55776;SDS011;54079;44.540;18.784;2023-03-01T05:29:21;4.88;;;4.22;;
55776;SDS011;54079;44.540;18.784;2023-03-01T05:31:53;6.07;;;4.85;;
55776;SDS011;54079;44.540;18.784;2023-03-01T05:34:31;7.18;;;5.53;;
55776;SDS011;54079;44.540;18.784;2023-03-01T05:36:58;6.82;;;5.05;;
55776;SDS011;54079;44.540;18.784;2023-03-01T05:39:26;5.63;;;4.45;;
55776;SDS011;54079;44.540;18.784;2023-03-01T05:41:54;7.43;;;5.72;;
55776;SDS011;54079;44.540;18.784;2023-03-01T05:44:21;5.13;;;3.90;;
55776;SDS011;54079;44.540;18.784;2023-03-01T05:46:46;7.72;;;4.82;;
55776;SDS011;54079;44.540;18.784;2023-03-01T05:49:13;5.88;;;4.43;;
55776;SDS011;54079;44.540;18.784;2023-03-01T05:51:39;6.53;;;5.28;;
55776;SDS011;54079;44.540;18.784;2023-03-01T05:54:06;8.32;;;6.35;;
55776;SDS011;54079;44.540;18.784;2023-03-01T05:56:33;8.52;;;5.97;;
55776;SDS011;54079;44.540;18.784;2023-03-01T05:59:00;9.82;;;6.30;;
55776;SDS011;54079;44.540;18.784;2023-03-01T06:01:27;7.30;;;5.53;;
55776;SDS011;54079;44.540;18.784;2023-03-01T06:03:53;9.50;;;6.05;;
55776;SDS011;54079;44.540;18.784;2023-03-01T06:06:19;7.78;;;6.38;;
55776;SDS011;54079;44.540;18.784;2023-03-01T06:08:45;12.43;;;8.57;;
55776;SDS011;54079;44.540;18.784;2023-03-01T06:11:11;10.07;;;6.45;;
55776;SDS011;54079;44.540;18.784;2023-03-01T06:13:37;8.88;;;6.60;;
55776;SDS011;54079;44.540;18.784;2023-03-01T06:16:06;10.32;;;7.03;;
55776;SDS011;54079;44.540;18.784;2023-03-01T06:18:32;11.75;;;7.38;;
55776;SDS011;54079;44.540;18.784;2023-03-01T06:20:59;8.68;;;6.68;;
55776;SDS011;54079;44.540;18.784;2023-03-01T06:23:25;9.23;;;6.93;;
55776;SDS011;54079;44.540;18.784;2023-03-01T06:25:51;10.07;;;7.97;;
55776;SDS011;54079;44.540;18.784;2023-03-01T06:28:17;12.18;;;8.90;;
55776;SDS011;54079;44.540;18.784;2023-03-01T06:30:43;12.75;;;9.57;;
55776;SDS011;54079;44.540;18.784;2023-03-01T06:33:09;11.57;;;8.25;;
55776;SDS011;54079;44.540;18.784;2023-03-01T06:35:35;9.25;;;7.07;;
55776;SDS011;54079;44.540;18.784;2023-03-01T06:38:02;9.90;;;7.18;;
55776;SDS011;54079;44.540;18.784;2023-03-01T06:40:28;12.60;;;9.52;;
55776;SDS011;54079;44.540;18.784;2023-03-01T06:42:56;12.35;;;9.50;;
55776;SDS011;54079;44.540;18.784;2023-03-01T06:45:23;13.15;;;8.45;;
55776;SDS011;54079;44.540;18.784;2023-03-01T06:47:49;12.63;;;10.02;;
55776;SDS011;54079;44.540;18.784;2023-03-01T06:50:16;18.45;;;12.25;;
55776;SDS011;54079;44.540;18.784;2023-03-01T06:52:43;11.48;;;8.68;;
55776;SDS011;54079;44.540;18.784;2023-03-01T06:55:10;9.95;;;7.88;;
55776;SDS011;54079;44.540;18.784;2023-03-01T06:57:36;11.85;;;8.32;;
55776;SDS011;54079;44.540;18.784;2023-03-01T07:00:03;13.45;;;9.20;;
55776;SDS011;54079;44.540;18.784;2023-03-01T07:02:30;15.82;;;12.50;;
55776;SDS011;54079;44.540;18.784;2023-03-01T07:04:56;13.52;;;10.18;;
55776;SDS011;54079;44.540;18.784;2023-03-01T07:07:22;13.40;;;10.68;;
55776;SDS011;54079;44.540;18.784;2023-03-01T07:09:49;12.00;;;8.70;;
55776;SDS011;54079;44.540;18.784;2023-03-01T07:12:15;10.57;;;8.80;;
55776;SDS011;54079;44.540;18.784;2023-03-01T07:14:43;17.95;;;10.32;;
55776;SDS011;54079;44.540;18.784;2023-03-01T07:17:09;10.38;;;7.88;;
55776;SDS011;54079;44.540;18.784;2023-03-01T07:19:35;10.93;;;7.43;;
55776;SDS011;54079;44.540;18.784;2023-03-01T07:22:01;14.35;;;10.45;;
55776;SDS011;54079;44.540;18.784;2023-03-01T07:24:29;16.92;;;11.60;;
55776;SDS011;54079;44.540;18.784;2023-03-01T07:26:55;10.50;;;8.27;;
55776;SDS011;54079;44.540;18.784;2023-03-01T07:29:21;11.77;;;8.23;;
55776;SDS011;54079;44.540;18.784;2023-03-01T07:31:47;9.65;;;7.45;;
55776;SDS011;54079;44.540;18.784;2023-03-01T07:34:13;10.95;;;7.50;;
55776;SDS011;54079;44.540;18.784;2023-03-01T07:36:39;16.30;;;11.13;;
55776;SDS011;54079;44.540;18.784;2023-03-01T07:39:08;14.35;;;9.77;;
55776;SDS011;54079;44.540;18.784;2023-03-01T07:41:35;12.88;;;10.82;;
55776;SDS011;54079;44.540;18.784;2023-03-01T07:44:01;15.52;;;12.00;;
55776;SDS011;54079;44.540;18.784;2023-03-01T07:46:27;16.52;;;12.50;;
55776;SDS011;54079;44.540;18.784;2023-03-01T07:48:53;12.43;;;10.32;;
55776;SDS011;54079;44.540;18.784;2023-03-01T07:51:19;12.88;;;9.35;;
55776;SDS011;54079;44.540;18.784;2023-03-01T07:53:47;13.43;;;10.15;;
55776;SDS011;54079;44.540;18.784;2023-03-01T07:56:14;14.93;;;10.23;;
55776;SDS011;54079;44.540;18.784;2023-03-01T07:58:44;11.20;;;9.93;;
55776;SDS011;54079;44.540;18.784;2023-03-01T08:01:11;16.17;;;10.60;;
55776;SDS011;54079;44.540;18.784;2023-03-01T08:03:39;12.88;;;10.05;;
55776;SDS011;54079;44.540;18.784;2023-03-01T08:06:06;15.02;;;10.48;;
55776;SDS011;54079;44.540;18.784;2023-03-01T08:08:33;13.65;;;10.93;;
55776;SDS011;54079;44.540;18.784;2023-03-01T08:11:01;17.95;;;12.43;;
55776;SDS011;54079;44.540;18.784;2023-03-01T08:13:28;17.15;;;10.82;;
55776;SDS011;54079;44.540;18.784;2023-03-01T08:16:00;14.95;;;11.02;;
55776;SDS011;54079;44.540;18.784;2023-03-01T08:18:31;15.13;;;11.88;;
55776;SDS011;54079;44.540;18.784;2023-03-01T08:21:07;18.48;;;13.73;;
55776;SDS011;54079;44.540;18.784;2023-03-01T08:23:35;21.25;;;14.35;;
55776;SDS011;54079;44.540;18.784;2023-03-01T08:26:09;24.10;;;17.23;;
55776;SDS011;54079;44.540;18.784;2023-03-01T08:28:39;22.70;;;15.82;;
55776;SDS011;54079;44.540;18.784;2023-03-01T08:31:13;19.85;;;14.50;;
55776;SDS011;54079;44.540;18.784;2023-03-01T08:33:47;21.17;;;15.70;;
55776;SDS011;54079;44.540;18.784;2023-03-01T08:36:16;16.27;;;12.70;;
55776;SDS011;54079;44.540;18.784;2023-03-01T08:38:44;19.42;;;14.00;;
55776;SDS011;54079;44.540;18.784;2023-03-01T08:41:10;20.20;;;14.00;;
55776;SDS011;54079;44.540;18.784;2023-03-01T08:43:36;17.70;;;13.35;;
55776;SDS011;54079;44.540;18.784;2023-03-01T08:46:02;21.63;;;16.13;;
55776;SDS011;54079;44.540;18.784;2023-03-01T08:48:28;21.13;;;16.27;;
55776;SDS011;54079;44.540;18.784;2023-03-01T08:50:54;24.13;;;18.08;;
55776;SDS011;54079;44.540;18.784;2023-03-01T08:53:21;27.02;;;18.95;;
55776;SDS011;54079;44.540;18.784;2023-03-01T08:55:47;26.50;;;19.25;;
55776;SDS011;54079;44.540;18.784;2023-03-01T08:58:13;29.83;;;23.27;;
55776;SDS011;54079;44.540;18.784;2023-03-01T09:00:39;27.02;;;18.88;;
55776;SDS011;54079;44.540;18.784;2023-03-01T09:03:05;27.08;;;19.38;;
55776;SDS011;54079;44.540;18.784;2023-03-01T09:05:32;26.70;;;20.48;;
55776;SDS011;54079;44.540;18.784;2023-03-01T09:07:59;25.70;;;19.02;;
55776;SDS011;54079;44.540;18.784;2023-03-01T09:10:25;18.40;;;14.65;;
55776;SDS011;54079;44.540;18.784;2023-03-01T09:12:51;17.42;;;12.65;;
55776;SDS011;54079;44.540;18.784;2023-03-01T09:15:17;17.27;;;11.65;;
55776;SDS011;54079;44.540;18.784;2023-03-01T09:17:43;16.63;;;11.82;;
55776;SDS011;54079;44.540;18.784;2023-03-01T09:20:09;10.00;;;6.65;;
55776;SDS011;54079;44.540;18.784;2023-03-01T09:22:35;11.02;;;7.75;;
55776;SDS011;54079;44.540;18.784;2023-03-01T09:25:01;8.80;;;6.28;;
55776;SDS011;54079;44.540;18.784;2023-03-01T09:27:28;9.73;;;7.57;;
55776;SDS011;54079;44.540;18.784;2023-03-01T09:29:53;9.55;;;6.97;;
55776;SDS011;54079;44.540;18.784;2023-03-01T09:32:21;11.93;;;8.73;;
55776;SDS011;54079;44.540;18.784;2023-03-01T09:34:47;10.60;;;6.80;;
55776;SDS011;54079;44.540;18.784;2023-03-01T09:37:35;8.80;;;6.13;;
55776;SDS011;54079;44.540;18.784;2023-03-01T09:40:02;9.75;;;7.30;;
55776;SDS011;54079;44.540;18.784;2023-03-01T09:42:45;8.48;;;5.35;;
55776;SDS011;54079;44.540;18.784;2023-03-01T09:45:35;9.15;;;6.00;;
55776;SDS011;54079;44.540;18.784;2023-03-01T09:48:07;8.65;;;5.63;;
55776;SDS011;54079;44.540;18.784;2023-03-01T09:50:48;11.38;;;7.53;;
55776;SDS011;54079;44.540;18.784;2023-03-01T09:53:20;11.50;;;7.65;;
55776;SDS011;54079;44.540;18.784;2023-03-01T09:55:54;8.98;;;6.70;;
55776;SDS011;54079;44.540;18.784;2023-03-01T10:01:33;10.80;;;7.30;;
55776;SDS011;54079;44.540;18.784;2023-03-01T10:09:28;10.05;;;7.50;;
55776;SDS011;54079;44.540;18.784;2023-03-01T10:11:58;8.02;;;6.95;;
55776;SDS011;54079;44.540;18.784;2023-03-01T10:14:39;13.47;;;9.70;;
55776;SDS011;54079;44.540;18.784;2023-03-01T10:20:23;24.17;;;18.10;;
55776;SDS011;54079;44.540;18.784;2023-03-01T10:22:51;21.02;;;15.88;;
55776;SDS011;54079;44.540;18.784;2023-03-01T10:25:25;18.88;;;13.02;;
55776;SDS011;54079;44.540;18.784;2023-03-01T10:27:57;20.50;;;15.63;;
55776;SDS011;54079;44.540;18.784;2023-03-01T10:30:37;19.95;;;15.07;;
55776;SDS011;54079;44.540;18.784;2023-03-01T10:33:26;12.07;;;9.38;;
55776;SDS011;54079;44.540;18.784;2023-03-01T10:35:54;8.57;;;5.90;;
55776;SDS011;54079;44.540;18.784;2023-03-01T10:38:20;15.05;;;10.05;;
55776;SDS011;54079;44.540;18.784;2023-03-01T10:40:51;11.65;;;8.15;;
55776;SDS011;54079;44.540;18.784;2023-03-01T10:43:19;14.50;;;9.20;;
55776;SDS011;54079;44.540;18.784;2023-03-01T10:45:45;10.82;;;6.93;;
55776;SDS011;54079;44.540;18.784;2023-03-01T10:48:18;7.13;;;5.47;;
55776;SDS011;54079;44.540;18.784;2023-03-01T10:51:04;10.95;;;7.35;;
55776;SDS011;54079;44.540;18.784;2023-03-01T10:56:06;8.48;;;6.40;;
55776;SDS011;54079;44.540;18.784;2023-03-01T10:58:35;8.88;;;6.18;;
55776;SDS011;54079;44.540;18.784;2023-03-01T11:01:04;14.50;;;10.57;;
55776;SDS011;54079;44.540;18.784;2023-03-01T11:03:39;13.82;;;9.85;;
55776;SDS011;54079;44.540;18.784;2023-03-01T11:06:19;7.35;;;5.20;;
55776;SDS011;54079;44.540;18.784;2023-03-01T11:08:48;8.38;;;5.93;;
55776;SDS011;54079;44.540;18.784;2023-03-01T11:14:03;11.05;;;8.00;;
55776;SDS011;54079;44.540;18.784;2023-03-01T11:16:32;24.90;;;20.10;;
55776;SDS011;54079;44.540;18.784;2023-03-01T11:21:47;37.60;;;25.77;;
55776;SDS011;54079;44.540;18.784;2023-03-01T11:30:06;32.45;;;23.33;;
55776;SDS011;54079;44.540;18.784;2023-03-01T11:35:30;28.08;;;20.58;;
55776;SDS011;54079;44.540;18.784;2023-03-01T11:40:41;24.35;;;18.73;;
55776;SDS011;54079;44.540;18.784;2023-03-01T11:46:25;23.85;;;18.40;;
55776;SDS011;54079;44.540;18.784;2023-03-01T11:52:03;23.00;;;16.45;;
55776;SDS011;54079;44.540;18.784;2023-03-01T11:54:42;22.65;;;18.13;;
55776;SDS011;54079;44.540;18.784;2023-03-01T12:00:20;19.60;;;14.27;;
55776;SDS011;54079;44.540;18.784;2023-03-01T12:03:44;17.02;;;13.65;;
55776;SDS011;54079;44.540;18.784;2023-03-01T12:06:01;18.17;;;13.70;;
55776;SDS011;54079;44.540;18.784;2023-03-01T12:08:46;16.50;;;12.10;;
55776;SDS011;54079;44.540;18.784;2023-03-01T12:11:23;13.35;;;10.27;;
55776;SDS011;54079;44.540;18.784;2023-03-01T12:20:30;15.75;;;9.80;;
55776;SDS011;54079;44.540;18.784;2023-03-01T12:37:03;12.13;;;9.18;;
55776;SDS011;54079;44.540;18.784;2023-03-01T12:42:46;14.27;;;9.57;;
55776;SDS011;54079;44.540;18.784;2023-03-01T12:48:08;10.40;;;8.02;;
55776;SDS011;54079;44.540;18.784;2023-03-01T12:50:42;15.82;;;10.80;;
55776;SDS011;54079;44.540;18.784;2023-03-01T12:53:27;14.75;;;10.75;;
55776;SDS011;54079;44.540;18.784;2023-03-01T12:55:59;13.27;;;10.23;;
55776;SDS011;54079;44.540;18.784;2023-03-01T12:58:39;16.60;;;11.85;;
55776;SDS011;54079;44.540;18.784;2023-03-01T13:04:20;13.82;;;10.48;;
55776;SDS011;54079;44.540;18.784;2023-03-01T13:07:19;12.07;;;8.53;;
55776;SDS011;54079;44.540;18.784;2023-03-01T13:10:14;17.42;;;11.90;;
55776;SDS011;54079;44.540;18.784;2023-03-01T13:13:01;14.77;;;10.82;;
55776;SDS011;54079;44.540;18.784;2023-03-01T13:15:36;16.08;;;11.98;;
55776;SDS011;54079;44.540;18.784;2023-03-01T13:20:46;17.08;;;11.98;;
55776;SDS011;54079;44.540;18.784;2023-03-01T13:31:08;12.95;;;10.23;;
55776;SDS011;54079;44.540;18.784;2023-03-01T13:33:43;15.02;;;10.80;;
55776;SDS011;54079;44.540;18.784;2023-03-01T13:49:53;15.73;;;11.68;;
55776;SDS011;54079;44.540;18.784;2023-03-01T13:55:29;12.85;;;10.15;;
55776;SDS011;54079;44.540;18.784;2023-03-01T13:58:02;15.02;;;9.85;;
55776;SDS011;54079;44.540;18.784;2023-03-01T14:00:40;12.90;;;9.73;;
55776;SDS011;54079;44.540;18.784;2023-03-01T14:05:40;14.00;;;10.52;;
55776;SDS011;54079;44.540;18.784;2023-03-01T14:08:30;14.98;;;10.00;;
55776;SDS011;54079;44.540;18.784;2023-03-01T14:19:26;16.55;;;10.90;;
55776;SDS011;54079;44.540;18.784;2023-03-01T14:24:28;12.75;;;9.40;;
55776;SDS011;54079;44.540;18.784;2023-03-01T14:26:57;12.52;;;8.95;;
55776;SDS011;54079;44.540;18.784;2023-03-01T14:29:26;13.07;;;9.68;;
55776;SDS011;54079;44.540;18.784;2023-03-01T14:31:53;14.18;;;10.45;;
55776;SDS011;54079;44.540;18.784;2023-03-01T14:34:22;19.20;;;13.35;;
55776;SDS011;54079;44.540;18.784;2023-03-01T14:36:49;18.08;;;12.23;;
55776;SDS011;54079;44.540;18.784;2023-03-01T14:39:16;12.95;;;10.50;;
55776;SDS011;54079;44.540;18.784;2023-03-01T14:41:43;13.57;;;10.77;;
55776;SDS011;54079;44.540;18.784;2023-03-01T14:44:14;15.02;;;11.57;;
55776;SDS011;54079;44.540;18.784;2023-03-01T14:46:44;14.60;;;11.32;;
55776;SDS011;54079;44.540;18.784;2023-03-01T14:51:40;11.70;;;9.32;;
55776;SDS011;54079;44.540;18.784;2023-03-01T14:54:19;12.55;;;9.57;;
55776;SDS011;54079;44.540;18.784;2023-03-01T14:57:00;16.98;;;10.70;;
55776;SDS011;54079;44.540;18.784;2023-03-01T14:59:27;12.40;;;9.93;;
55776;SDS011;54079;44.540;18.784;2023-03-01T15:01:55;12.75;;;9.68;;
55776;SDS011;54079;44.540;18.784;2023-03-01T15:04:23;12.05;;;8.82;;
55776;SDS011;54079;44.540;18.784;2023-03-01T15:06:51;14.55;;;10.13;;
55776;SDS011;54079;44.540;18.784;2023-03-01T15:09:18;13.07;;;10.63;;
55776;SDS011;54079;44.540;18.784;2023-03-01T15:11:44;12.73;;;9.30;;
55776;SDS011;54079;44.540;18.784;2023-03-01T15:17:23;16.52;;;12.23;;
55776;SDS011;54079;44.540;18.784;2023-03-01T15:19:54;25.20;;;17.83;;
55776;SDS011;54079;44.540;18.784;2023-03-01T15:22:20;27.65;;;21.35;;
55776;SDS011;54079;44.540;18.784;2023-03-01T15:24:50;37.15;;;27.42;;
55776;SDS011;54079;44.540;18.784;2023-03-01T15:27:18;37.33;;;27.85;;
55776;SDS011;54079;44.540;18.784;2023-03-01T15:29:50;41.83;;;29.83;;
55776;SDS011;54079;44.540;18.784;2023-03-01T15:34:58;40.35;;;29.38;;
55776;SDS011;54079;44.540;18.784;2023-03-01T15:42:49;41.10;;;28.35;;
55776;SDS011;54079;44.540;18.784;2023-03-01T15:47:55;35.28;;;23.52;;
55776;SDS011;54079;44.540;18.784;2023-03-01T15:53:01;31.30;;;22.15;;
55776;SDS011;54079;44.540;18.784;2023-03-01T15:55:32;31.60;;;22.63;;
55776;SDS011;54079;44.540;18.784;2023-03-01T15:57:59;28.55;;;20.05;;
55776;SDS011;54079;44.540;18.784;2023-03-01T16:00:29;31.25;;;21.98;;
55776;SDS011;54079;44.540;18.784;2023-03-01T16:02:55;29.77;;;21.77;;
55776;SDS011;54079;44.540;18.784;2023-03-01T16:05:26;32.35;;;21.85;;
55776;SDS011;54079;44.540;18.784;2023-03-01T16:07:53;32.08;;;21.48;;
55776;SDS011;54079;44.540;18.784;2023-03-01T16:10:20;30.48;;;20.38;;
55776;SDS011;54079;44.540;18.784;2023-03-01T16:12:46;30.50;;;21.45;;
55776;SDS011;54079;44.540;18.784;2023-03-01T16:17:50;29.65;;;21.63;;
55776;SDS011;54079;44.540;18.784;2023-03-01T16:20:17;33.20;;;23.15;;
55776;SDS011;54079;44.540;18.784;2023-03-01T16:22:44;37.22;;;24.92;;
55776;SDS011;54079;44.540;18.784;2023-03-01T16:25:11;33.72;;;23.80;;
55776;SDS011;54079;44.540;18.784;2023-03-01T16:27:41;33.70;;;22.50;;
55776;SDS011;54079;44.540;18.784;2023-03-01T16:30:08;30.67;;;21.25;;
55776;SDS011;54079;44.540;18.784;2023-03-01T16:32:41;33.40;;;23.15;;
55776;SDS011;54079;44.540;18.784;2023-03-01T16:35:10;36.17;;;22.58;;
55776;SDS011;54079;44.540;18.784;2023-03-01T16:37:38;29.20;;;19.40;;
55776;SDS011;54079;44.540;18.784;2023-03-01T16:40:05;23.75;;;15.77;;
55776;SDS011;54079;44.540;18.784;2023-03-01T16:42:40;25.05;;;17.60;;
55776;SDS011;54079;44.540;18.784;2023-03-01T16:45:07;25.45;;;16.92;;
55776;SDS011;54079;44.540;18.784;2023-03-01T16:47:34;23.60;;;15.55;;
55776;SDS011;54079;44.540;18.784;2023-03-01T16:50:00;24.67;;;14.57;;
55776;SDS011;54079;44.540;18.784;2023-03-01T16:52:27;22.45;;;16.45;;
55776;SDS011;54079;44.540;18.784;2023-03-01T16:54:53;25.77;;;17.40;;
55776;SDS011;54079;44.540;18.784;2023-03-01T16:57:19;23.10;;;16.33;;
55776;SDS011;54079;44.540;18.784;2023-03-01T16:59:45;21.63;;;14.82;;